createdAt,value
2017-07-25T00:01:25.097Z,15.60
2017-07-25T00:03:52.892Z,15.37
2017-07-25T00:06:20.685Z,21.60
2017-07-25T00:08:48.528Z,13.47
2017-07-25T00:11:16.352Z,16.07
2017-07-25T00:13:51.124Z,15.73
2017-07-25T00:16:18.909Z,13.37
2017-07-25T00:18:46.732Z,16.43
2017-07-25T00:21:14.516Z,16.03
2017-07-25T00:23:42.325Z,15.50
2017-07-25T00:26:10.147Z,15.93
2017-07-25T00:28:37.949Z,15.97
2017-07-25T00:31:05.756Z,14.87
2017-07-25T00:33:33.576Z,24.00
2017-07-25T00:36:01.368Z,17.77
2017-07-25T00:38:29.200Z,18.70
2017-07-25T00:40:57.004Z,18.33
2017-07-25T00:43:24.795Z,24.30
2017-07-25T00:45:52.604Z,23.07
2017-07-25T00:48:20.415Z,19.63
2017-07-25T00:50:48.226Z,21.87
2017-07-25T00:53:16.020Z,26.27
2017-07-25T00:55:43.836Z,24.97
2017-07-25T00:58:11.628Z,22.67
2017-07-25T01:00:39.445Z,25.53
2017-07-25T01:03:07.266Z,27.57
2017-07-25T01:05:35.077Z,24.27
2017-07-25T01:08:02.912Z,25.60
2017-07-25T01:10:30.705Z,30.00
2017-07-25T01:12:58.535Z,29.17
2017-07-25T01:15:26.337Z,33.40
2017-07-25T01:17:54.156Z,33.73
2017-07-25T01:20:21.952Z,40.13
2017-07-25T01:22:49.773Z,37.33
2017-07-25T01:25:17.584Z,38.97
2017-07-25T01:27:45.400Z,37.20
2017-07-25T01:30:13.215Z,37.90
2017-07-25T01:32:41.037Z,33.03
2017-07-25T01:35:08.871Z,37.80
2017-07-25T01:37:36.701Z,43.33
2017-07-25T01:40:04.500Z,41.43
2017-07-25T01:42:32.292Z,48.53
2017-07-25T01:45:00.093Z,45.77
2017-07-25T01:47:27.880Z,46.73
2017-07-25T01:49:55.679Z,44.03
2017-07-25T01:52:23.476Z,45.83
2017-07-25T01:54:51.289Z,52.30
2017-07-25T01:57:19.117Z,47.30
2017-07-25T01:59:46.921Z,71.00
2017-07-25T02:02:14.720Z,53.27
2017-07-25T02:04:42.520Z,52.20
2017-07-25T02:07:10.336Z,57.03
2017-07-25T02:09:38.137Z,64.20
2017-07-25T02:12:05.956Z,55.67
2017-07-25T02:14:33.756Z,52.07
2017-07-25T02:17:01.544Z,56.10
2017-07-25T02:19:29.340Z,52.57
2017-07-25T02:21:57.128Z,51.80
2017-07-25T02:24:24.931Z,49.00
2017-07-25T02:26:52.716Z,47.27
2017-07-25T02:29:20.511Z,44.40
2017-07-25T02:31:48.299Z,44.77
2017-07-25T02:34:16.116Z,40.97
2017-07-25T02:36:43.900Z,49.50
2017-07-25T02:39:11.715Z,41.90
2017-07-25T02:41:39.536Z,48.47
2017-07-25T02:44:07.349Z,40.17
2017-07-25T02:46:35.172Z,34.93
2017-07-25T02:49:02.982Z,36.33
2017-07-25T02:51:30.808Z,39.10
2017-07-25T02:53:58.592Z,34.67
2017-07-25T02:56:26.389Z,35.87
2017-07-25T02:58:54.184Z,42.40
2017-07-25T03:01:21.985Z,36.77
2017-07-25T03:03:49.776Z,37.27
2017-07-25T03:06:17.588Z,32.03
2017-07-25T03:08:45.400Z,39.80
2017-07-25T03:11:13.212Z,34.00
2017-07-25T03:13:41.035Z,37.03
2017-07-25T03:16:08.828Z,32.57
2017-07-25T03:18:36.627Z,31.80
2017-07-25T03:21:04.444Z,38.03
2017-07-25T03:23:38.341Z,36.20
2017-07-25T03:26:06.154Z,36.20
2017-07-25T03:28:33.966Z,29.40
2017-07-25T03:31:01.789Z,36.60
2017-07-25T03:33:29.620Z,32.60
2017-07-25T03:35:57.413Z,32.50
2017-07-25T03:38:25.354Z,28.40
2017-07-25T03:40:53.152Z,36.37
2017-07-25T03:43:20.945Z,33.60
2017-07-25T03:45:48.734Z,28.30
2017-07-25T03:48:16.556Z,34.67
2017-07-25T03:50:44.388Z,31.83
2017-07-25T03:53:12.196Z,33.73
2017-07-25T03:55:40.016Z,30.10
2017-07-25T03:58:07.827Z,30.07
2017-07-25T04:00:35.641Z,34.70
2017-07-25T04:03:03.463Z,31.93
2017-07-25T04:05:31.250Z,36.67
2017-07-25T04:07:59.037Z,34.50
2017-07-25T04:10:26.846Z,35.50
2017-07-25T04:12:54.653Z,41.20
2017-07-25T04:15:22.436Z,29.70
2017-07-25T04:17:50.233Z,33.33
2017-07-25T04:20:18.023Z,36.63
2017-07-25T04:22:45.821Z,36.70
2017-07-25T04:25:13.600Z,33.00
2017-07-25T04:27:41.396Z,29.77
2017-07-25T04:30:09.193Z,40.00
2017-07-25T04:32:37.002Z,32.77
2017-07-25T04:35:04.789Z,30.73
2017-07-25T04:37:32.605Z,34.00
2017-07-25T04:40:00.394Z,38.13
2017-07-25T04:42:28.201Z,36.17
2017-07-25T04:44:55.992Z,33.47
2017-07-25T04:47:23.803Z,34.83
2017-07-25T04:49:51.602Z,35.03
2017-07-25T04:52:19.384Z,38.43
2017-07-25T04:54:47.189Z,31.23
2017-07-25T04:57:14.968Z,34.90
2017-07-25T04:59:42.762Z,34.27
2017-07-25T05:02:10.566Z,34.30
2017-07-25T05:04:38.360Z,33.80
2017-07-25T05:07:06.156Z,39.57
2017-07-25T05:09:33.995Z,40.47
2017-07-25T05:12:01.797Z,32.43
2017-07-25T05:14:29.596Z,41.43
2017-07-25T05:16:57.407Z,36.93
2017-07-25T05:19:25.213Z,36.77
2017-07-25T05:21:53.021Z,37.33
2017-07-25T05:24:20.823Z,37.50
2017-07-25T05:26:48.636Z,46.00
2017-07-25T05:29:16.442Z,36.53
2017-07-25T05:31:44.255Z,39.10
2017-07-25T05:34:12.036Z,36.00
2017-07-25T05:36:39.851Z,38.10
2017-07-25T05:39:07.667Z,34.10
2017-07-25T05:41:35.476Z,39.67
2017-07-25T05:44:03.288Z,36.60
2017-07-25T05:46:31.171Z,37.67
2017-07-25T05:48:59.004Z,34.67
2017-07-25T05:51:26.814Z,44.87
2017-07-25T05:53:54.735Z,37.93
2017-07-25T05:56:22.536Z,35.70
2017-07-25T05:58:50.351Z,36.43
2017-07-25T06:01:18.141Z,33.40
2017-07-25T06:03:46.096Z,39.13
2017-07-25T06:06:13.900Z,37.47
2017-07-25T06:08:41.718Z,41.10
2017-07-25T06:11:09.504Z,32.63
2017-07-25T06:13:37.320Z,45.97
2017-07-25T06:16:05.125Z,30.57
2017-07-25T06:18:32.930Z,32.43
2017-07-25T06:21:00.744Z,34.90
2017-07-25T06:23:28.531Z,35.83
2017-07-25T06:25:56.328Z,42.10
2017-07-25T06:28:24.108Z,41.17
2017-07-25T06:30:51.902Z,38.80
2017-07-25T06:33:19.684Z,32.37
2017-07-25T06:35:47.515Z,32.07
2017-07-25T06:38:15.316Z,31.23
2017-07-25T06:40:43.105Z,31.77
2017-07-25T06:43:17.660Z,36.50
2017-07-25T06:45:45.449Z,34.43
2017-07-25T06:48:13.260Z,37.87
2017-07-25T06:50:41.043Z,31.13
2017-07-25T06:53:08.871Z,34.03
2017-07-25T06:55:36.671Z,30.47
2017-07-25T06:58:04.467Z,38.57
2017-07-25T07:00:32.290Z,32.53
2017-07-25T07:03:00.088Z,32.40
2017-07-25T07:05:27.880Z,28.70
2017-07-25T07:07:55.660Z,34.30
2017-07-25T07:10:23.456Z,30.40
2017-07-25T07:12:51.248Z,29.90
2017-07-25T07:15:19.057Z,30.00
2017-07-25T07:17:46.845Z,33.50
2017-07-25T07:20:14.632Z,33.60
2017-07-25T07:22:42.429Z,32.43
2017-07-25T07:25:10.345Z,30.90
2017-07-25T07:27:38.154Z,32.33
2017-07-25T07:30:05.957Z,31.33
2017-07-25T07:32:33.769Z,28.30
2017-07-25T07:35:01.556Z,42.77
2017-07-25T07:37:29.369Z,30.53
2017-07-25T07:39:57.161Z,34.00
2017-07-25T07:42:24.976Z,28.50
2017-07-25T07:44:52.773Z,27.30
2017-07-25T07:47:20.577Z,31.93
2017-07-25T07:49:48.365Z,29.17
2017-07-25T07:52:16.165Z,32.87
2017-07-25T07:54:43.956Z,30.63
2017-07-25T07:57:11.781Z,30.30
2017-07-25T07:59:39.579Z,30.80
2017-07-25T08:02:07.361Z,34.03
2017-07-25T08:04:35.160Z,31.23
2017-07-25T08:07:02.948Z,30.23
2017-07-25T08:09:30.737Z,39.63
2017-07-25T08:11:58.533Z,28.33
2017-07-25T08:14:26.328Z,33.03
2017-07-25T08:16:54.119Z,33.43
2017-07-25T08:19:22.012Z,36.20
2017-07-25T08:21:49.800Z,32.17
2017-07-25T08:24:17.600Z,32.43
2017-07-25T08:26:45.398Z,35.57
2017-07-25T08:29:13.201Z,28.60
2017-07-25T08:31:41.015Z,28.13
2017-07-25T08:34:08.812Z,27.90
2017-07-25T08:36:36.608Z,33.60
2017-07-25T08:39:04.396Z,32.40
2017-07-25T08:41:32.185Z,28.83
2017-07-25T08:43:59.985Z,29.57
2017-07-25T08:46:27.781Z,29.30
2017-07-25T08:48:55.563Z,29.50
2017-07-25T08:51:23.356Z,31.63
2017-07-25T08:53:51.145Z,29.33
2017-07-25T08:56:18.943Z,28.27
2017-07-25T08:58:46.726Z,33.77
2017-07-25T09:01:14.525Z,34.23
2017-07-25T09:03:42.321Z,34.70
2017-07-25T09:06:10.129Z,36.83
2017-07-25T09:08:37.913Z,34.27
2017-07-25T09:11:05.701Z,37.37
2017-07-25T09:13:33.505Z,28.43
2017-07-25T09:16:01.288Z,31.60
2017-07-25T09:18:29.077Z,28.80
2017-07-25T09:20:56.873Z,28.93
2017-07-25T09:23:25.516Z,28.33
2017-07-25T09:25:53.318Z,33.10
2017-07-25T09:28:21.115Z,27.20
2017-07-25T09:30:48.904Z,31.30
2017-07-25T09:33:16.716Z,37.67
2017-07-25T09:35:44.509Z,28.70
2017-07-25T09:38:12.302Z,28.43
2017-07-25T09:40:40.116Z,42.63
2017-07-25T09:43:07.913Z,30.87
2017-07-25T09:45:35.708Z,34.27
2017-07-25T09:48:03.507Z,20.27
2017-07-25T09:50:31.304Z,20.90
2017-07-25T09:52:59.106Z,31.50
2017-07-25T09:55:26.904Z,19.83
2017-07-25T09:57:54.683Z,24.63
2017-07-25T10:00:22.473Z,21.10
2017-07-25T10:02:50.277Z,14.70
2017-07-25T10:05:25.100Z,13.93
2017-07-25T10:07:52.893Z,11.77
2017-07-25T10:10:20.705Z,10.70
2017-07-25T10:12:48.495Z,7.50
2017-07-25T10:15:16.288Z,8.30
2017-07-25T10:17:44.092Z,7.43
2017-07-25T10:20:11.890Z,7.93
2017-07-25T10:22:39.684Z,7.67
2017-07-25T10:25:07.486Z,7.43
2017-07-25T10:27:35.281Z,5.70
2017-07-25T10:30:03.077Z,6.47
2017-07-25T10:32:30.859Z,4.30
2017-07-25T10:34:58.652Z,3.90
2017-07-25T10:37:26.443Z,5.40
2017-07-25T10:39:54.228Z,3.93
2017-07-25T10:42:22.029Z,4.80
2017-07-25T10:44:49.813Z,4.10
2017-07-25T10:47:17.592Z,3.30
2017-07-25T10:49:52.479Z,2.93
2017-07-25T10:52:27.123Z,6.80
2017-07-25T10:54:54.917Z,3.43
2017-07-25T10:57:22.705Z,4.63
2017-07-25T10:59:50.494Z,3.63
2017-07-25T11:02:18.276Z,3.60
2017-07-25T11:04:46.069Z,4.33
2017-07-25T11:07:13.853Z,4.07
2017-07-25T11:09:41.646Z,3.57
2017-07-25T11:12:09.433Z,4.87
2017-07-25T11:14:37.237Z,3.30
2017-07-25T11:17:05.012Z,5.43
2017-07-25T11:19:32.804Z,3.87
2017-07-25T11:22:00.589Z,2.47
2017-07-25T11:24:28.384Z,2.50
2017-07-25T11:26:56.174Z,2.60
2017-07-25T11:29:23.968Z,2.67
2017-07-25T11:31:51.744Z,3.00
2017-07-25T11:34:19.541Z,2.90
2017-07-25T11:36:47.330Z,3.00
2017-07-25T11:39:15.148Z,2.73
2017-07-25T11:41:42.932Z,5.43
2017-07-25T11:44:10.707Z,2.40
2017-07-25T11:46:38.501Z,3.27
2017-07-25T11:49:06.288Z,2.10
2017-07-25T11:51:34.089Z,2.53
2017-07-25T11:54:01.896Z,2.50
2017-07-25T11:56:29.713Z,3.20
2017-07-25T11:58:57.513Z,2.23
2017-07-25T12:01:25.303Z,2.43
2017-07-25T12:03:53.093Z,2.70
2017-07-25T12:06:20.898Z,3.77
2017-07-25T12:08:48.702Z,2.27
2017-07-25T12:11:16.516Z,2.50
2017-07-25T12:13:44.312Z,2.60
2017-07-25T12:16:12.109Z,2.13
2017-07-25T12:18:40.016Z,2.53
2017-07-25T12:21:14.024Z,2.60
2017-07-25T12:23:41.821Z,2.20
2017-07-25T12:26:09.621Z,2.47
2017-07-25T12:28:37.426Z,2.60
2017-07-25T12:31:05.234Z,2.20
2017-07-25T12:33:33.028Z,4.10
2017-07-25T12:36:00.812Z,2.93
2017-07-25T12:38:28.621Z,1.87
2017-07-25T12:40:56.408Z,2.27
2017-07-25T12:43:24.205Z,2.23
2017-07-25T12:45:51.990Z,5.00
2017-07-25T12:48:19.813Z,2.23
2017-07-25T12:50:47.597Z,2.43
2017-07-25T12:53:16.144Z,2.40
2017-07-25T12:55:43.928Z,3.80
2017-07-25T12:58:11.717Z,2.70
2017-07-25T13:00:45.589Z,4.50
2017-07-25T13:03:19.605Z,3.13
2017-07-25T13:05:47.404Z,3.67
2017-07-25T13:08:15.188Z,3.40
2017-07-25T13:10:42.988Z,3.57
2017-07-25T13:13:10.769Z,3.53
2017-07-25T13:15:38.572Z,4.97
2017-07-25T13:18:06.363Z,5.93
2017-07-25T13:20:34.148Z,4.40
2017-07-25T13:23:01.952Z,4.50
2017-07-25T13:25:29.746Z,5.83
2017-07-25T13:27:57.540Z,6.43
2017-07-25T13:30:25.363Z,6.43
2017-07-25T13:32:53.156Z,8.13
2017-07-25T13:35:20.935Z,8.90
2017-07-25T13:37:48.724Z,11.80
2017-07-25T13:40:16.509Z,7.70
2017-07-25T13:42:44.312Z,7.90
2017-07-25T13:45:12.101Z,9.80
2017-07-25T13:47:39.898Z,15.67
2017-07-25T13:50:07.692Z,13.70
2017-07-25T13:52:35.497Z,10.00
2017-07-25T13:55:03.280Z,9.43
2017-07-25T13:57:38.025Z,12.23
2017-07-25T14:00:05.817Z,14.07
2017-07-25T14:02:33.626Z,11.23
2017-07-25T14:05:01.416Z,9.90
2017-07-25T14:07:29.195Z,9.90
2017-07-25T14:09:56.987Z,10.20
2017-07-25T14:12:24.781Z,15.50
2017-07-25T14:14:52.592Z,11.90
2017-07-25T14:17:20.412Z,18.60
2017-07-25T14:19:48.205Z,11.17
2017-07-25T14:22:15.979Z,13.63
2017-07-25T14:24:43.781Z,11.23
2017-07-25T14:27:11.564Z,11.23
2017-07-25T14:29:39.361Z,12.43
2017-07-25T14:32:07.144Z,12.83
2017-07-25T14:34:34.960Z,10.30
2017-07-25T14:37:02.753Z,20.23
2017-07-25T14:39:30.536Z,11.47
2017-07-25T14:41:58.325Z,10.97
2017-07-25T14:44:26.112Z,15.77
2017-07-25T14:46:53.900Z,8.20
2017-07-25T14:49:21.684Z,9.27
2017-07-25T14:51:49.472Z,10.10
2017-07-25T14:54:17.247Z,8.80
2017-07-25T14:56:45.036Z,9.77
2017-07-25T14:59:12.832Z,8.83
2017-07-25T15:01:40.629Z,5.80
2017-07-25T15:04:08.416Z,7.30
2017-07-25T15:06:36.216Z,8.13
2017-07-25T15:09:04.005Z,11.87
2017-07-25T15:11:31.807Z,7.17
2017-07-25T15:13:59.600Z,11.13
2017-07-25T15:16:27.385Z,8.03
2017-07-25T15:18:55.194Z,13.13
2017-07-25T15:21:22.989Z,12.70
2017-07-25T15:23:50.793Z,16.60
2017-07-25T15:26:18.585Z,10.37
2017-07-25T15:28:46.381Z,12.60
2017-07-25T15:31:14.174Z,11.90
2017-07-25T15:33:41.967Z,15.20
2017-07-25T15:36:09.768Z,6.93
2017-07-25T15:38:37.573Z,8.00
2017-07-25T15:41:05.368Z,8.00
2017-07-25T15:43:33.179Z,11.40
2017-07-25T15:46:00.974Z,7.80
2017-07-25T15:48:28.794Z,6.47
2017-07-25T15:50:56.607Z,6.47
2017-07-25T15:53:24.387Z,8.97
2017-07-25T15:55:52.171Z,7.93
2017-07-25T15:58:19.963Z,8.70
2017-07-25T16:00:47.763Z,10.23
2017-07-25T16:03:15.552Z,7.13
2017-07-25T16:05:43.340Z,8.70
2017-07-25T16:08:11.128Z,5.50
2017-07-25T16:10:38.932Z,7.87
2017-07-25T16:13:06.722Z,8.30
2017-07-25T16:15:34.542Z,6.23
2017-07-25T16:18:02.333Z,10.93
2017-07-25T16:20:30.129Z,7.63
2017-07-25T16:22:57.916Z,6.40
2017-07-25T16:25:25.721Z,12.30
2017-07-25T16:27:53.520Z,5.20
2017-07-25T16:30:21.318Z,8.93
2017-07-25T16:32:49.117Z,10.30
2017-07-25T16:35:16.912Z,10.00
2017-07-25T16:37:44.717Z,8.13
2017-07-25T16:40:12.501Z,8.03
2017-07-25T16:42:40.312Z,5.07
2017-07-25T16:45:08.108Z,8.53
2017-07-25T16:47:35.917Z,9.13
2017-07-25T16:50:03.710Z,9.97
2017-07-25T16:52:31.517Z,5.63
2017-07-25T16:54:59.326Z,9.53
2017-07-25T16:57:27.099Z,9.93
2017-07-25T16:59:54.897Z,11.13
2017-07-25T17:02:22.685Z,6.60
2017-07-25T17:04:50.481Z,6.83
2017-07-25T17:07:18.278Z,9.40
2017-07-25T17:09:46.086Z,7.30
2017-07-25T17:12:13.876Z,7.77
2017-07-25T17:14:41.688Z,12.33
2017-07-25T17:17:09.474Z,11.00
2017-07-25T17:19:37.268Z,7.43
2017-07-25T17:22:05.058Z,7.83
2017-07-25T17:24:32.867Z,6.40
2017-07-25T17:27:00.661Z,8.10
2017-07-25T17:29:28.467Z,16.03
2017-07-25T17:31:56.257Z,10.00
2017-07-25T17:34:24.071Z,9.77
2017-07-25T17:36:51.870Z,14.77
2017-07-25T17:39:19.662Z,10.73
2017-07-25T17:41:47.473Z,9.50
2017-07-25T17:44:15.264Z,11.60
2017-07-25T17:46:43.071Z,6.77
2017-07-25T17:49:10.861Z,7.63
2017-07-25T17:51:38.648Z,6.50
2017-07-25T17:54:06.437Z,6.33
2017-07-25T17:56:34.240Z,8.20
2017-07-25T17:59:02.043Z,9.07
2017-07-25T18:01:29.832Z,6.83
2017-07-25T18:03:57.620Z,9.60
2017-07-25T18:06:25.404Z,8.40
2017-07-25T18:08:53.208Z,7.03
2017-07-25T18:11:21.012Z,7.93
2017-07-25T18:13:48.832Z,6.20
2017-07-25T18:16:16.626Z,6.33
2017-07-25T18:18:44.429Z,7.20
2017-07-25T18:21:12.223Z,5.97
2017-07-25T18:23:40.022Z,6.70
2017-07-25T18:26:07.857Z,6.63
2017-07-25T18:28:35.650Z,6.57
2017-07-25T18:31:03.473Z,15.00
2017-07-25T18:33:31.269Z,5.70
2017-07-25T18:35:59.076Z,6.97
2017-07-25T18:38:26.860Z,6.17
2017-07-25T18:40:54.664Z,8.27
2017-07-25T18:43:22.452Z,6.90
2017-07-25T18:45:50.257Z,6.53
2017-07-25T18:48:18.032Z,6.90
2017-07-25T18:50:45.841Z,5.97
2017-07-25T18:53:13.648Z,12.93
2017-07-25T18:55:41.436Z,5.40
2017-07-25T18:58:09.234Z,5.73
2017-07-25T19:00:37.016Z,5.13
2017-07-25T19:03:04.812Z,7.13
2017-07-25T19:05:32.616Z,5.87
2017-07-25T19:08:00.410Z,7.40
2017-07-25T19:10:28.204Z,3.57
2017-07-25T19:12:56.015Z,5.23
2017-07-25T19:15:23.813Z,5.53
2017-07-25T19:17:51.620Z,8.13
2017-07-25T19:20:19.413Z,5.77
2017-07-25T19:22:47.214Z,7.83
2017-07-25T19:25:15.011Z,7.87
2017-07-25T19:27:42.840Z,5.87
2017-07-25T19:30:10.677Z,6.33
2017-07-25T19:32:38.516Z,5.10
2017-07-25T19:35:06.337Z,10.20
2017-07-25T19:37:34.136Z,6.13
2017-07-25T19:40:02.085Z,5.67
2017-07-25T19:42:29.872Z,6.90
2017-07-25T19:44:57.672Z,5.83
2017-07-25T19:47:25.470Z,6.37
2017-07-25T19:49:53.276Z,7.23
2017-07-25T19:52:21.129Z,7.57
2017-07-25T19:54:48.951Z,5.77
2017-07-25T19:57:16.745Z,6.70
2017-07-25T19:59:44.557Z,5.83
2017-07-25T20:02:12.356Z,5.70
2017-07-25T20:04:42.474Z,5.40
2017-07-25T20:07:10.678Z,6.60
2017-07-25T20:09:38.473Z,5.83
2017-07-25T20:12:06.289Z,6.97
2017-07-25T20:14:34.153Z,6.80
2017-07-25T20:17:01.947Z,6.43
2017-07-25T20:19:29.743Z,7.33
2017-07-25T20:21:57.545Z,5.90
2017-07-25T20:24:25.335Z,8.27
2017-07-25T20:26:53.166Z,9.33
2017-07-25T20:29:20.948Z,7.40
2017-07-25T20:31:48.746Z,6.53
2017-07-25T20:34:16.541Z,6.97
2017-07-25T20:36:44.407Z,10.50
2017-07-25T20:39:12.180Z,7.37
2017-07-25T20:41:39.998Z,8.50
2017-07-25T20:44:07.781Z,7.73
2017-07-25T20:46:35.580Z,8.00
2017-07-25T20:49:03.408Z,7.40
2017-07-25T20:51:31.200Z,5.80
2017-07-25T20:53:58.988Z,6.53
2017-07-25T20:56:26.788Z,7.07
2017-07-25T20:58:54.593Z,6.10
2017-07-25T21:01:22.376Z,9.20
2017-07-25T21:03:50.184Z,7.87
2017-07-25T21:06:17.973Z,11.83
2017-07-25T21:08:45.769Z,12.13
2017-07-25T21:11:13.555Z,6.03
2017-07-25T21:13:41.356Z,8.83
2017-07-25T21:16:09.164Z,6.93
2017-07-25T21:18:36.960Z,5.03
2017-07-25T21:21:04.758Z,5.90
2017-07-25T21:23:31.516Z,6.07
2017-07-25T21:25:57.532Z,7.30
2017-07-25T21:28:23.555Z,5.93
2017-07-25T21:30:49.605Z,6.00
2017-07-25T21:33:15.621Z,7.17
2017-07-25T21:35:41.632Z,7.47
2017-07-25T21:38:07.642Z,10.20
2017-07-25T21:40:33.672Z,8.23
2017-07-25T21:42:59.705Z,8.10
2017-07-25T21:45:25.740Z,7.13
2017-07-25T21:47:51.801Z,7.27
2017-07-25T21:50:17.836Z,10.43
2017-07-25T21:52:43.869Z,5.30
2017-07-25T21:55:09.989Z,8.13
2017-07-25T21:57:36.764Z,8.63
2017-07-25T22:00:02.789Z,5.90
2017-07-25T22:02:41.100Z,6.70
2017-07-25T22:05:07.116Z,7.60
2017-07-25T22:07:33.093Z,6.97
2017-07-25T22:09:59.814Z,5.40
2017-07-25T22:12:26.520Z,7.27
2017-07-25T22:14:52.495Z,6.07
2017-07-25T22:17:18.469Z,6.73
2017-07-25T22:19:44.441Z,6.23
2017-07-25T22:22:10.412Z,7.20
2017-07-25T22:24:36.388Z,8.20
2017-07-25T22:27:02.357Z,7.37
2017-07-25T22:29:28.341Z,8.03
2017-07-25T22:31:54.313Z,9.20
2017-07-25T22:34:20.294Z,7.70
2017-07-25T22:36:47.017Z,9.17
2017-07-25T22:39:13.766Z,9.90
2017-07-25T22:41:39.743Z,7.00
2017-07-25T22:44:05.746Z,6.87
2017-07-25T22:46:31.820Z,6.13
2017-07-25T22:48:57.794Z,10.00
2017-07-25T22:51:23.772Z,7.03
2017-07-25T22:53:49.745Z,6.53
2017-07-25T22:56:15.730Z,6.23
2017-07-25T22:58:41.697Z,6.03
2017-07-25T23:01:07.666Z,9.90
2017-07-25T23:03:33.631Z,5.87
2017-07-25T23:05:59.638Z,6.77
2017-07-25T23:08:26.346Z,6.70
2017-07-25T23:10:52.317Z,6.77
2017-07-25T23:13:18.285Z,7.97
2017-07-25T23:15:44.288Z,5.70
2017-07-25T23:18:10.265Z,5.00
2017-07-25T23:20:36.234Z,8.93
2017-07-25T23:23:02.197Z,5.23
2017-07-25T23:25:28.976Z,5.50
2017-07-25T23:27:54.965Z,5.43
2017-07-25T23:30:20.944Z,5.10
2017-07-25T23:32:46.913Z,10.80
2017-07-25T23:35:12.890Z,5.00
2017-07-25T23:37:38.864Z,4.80
2017-07-25T23:40:05.733Z,5.00
2017-07-25T23:42:31.705Z,4.97
2017-07-25T23:44:57.656Z,5.70
2017-07-25T23:47:23.637Z,6.00
2017-07-25T23:49:49.601Z,5.87
2017-07-25T23:52:22.629Z,4.23
2017-07-25T23:54:48.617Z,6.30
2017-07-25T23:57:14.585Z,7.70
2017-07-25T23:59:40.562Z,4.37
